sensor_id;sensor_type;location;lat;lon;timestamp;P1;durP1;ratioP1;P2;durP2;ratioP2
69906;SDS011;57190;47.918;8.112;2024-01-30T00:01:12;1.40;;;1.30;;
69906;SDS011;57190;47.918;8.112;2024-01-30T00:03:38;0.80;;;0.80;;
69906;SDS011;57190;47.918;8.112;2024-01-30T00:06:04;1.17;;;1.17;;
69906;SDS011;57190;47.918;8.112;2024-01-30T00:08:29;1.00;;;1.00;;
69906;SDS011;57190;47.918;8.112;2024-01-30T00:10:55;1.17;;;1.07;;
69906;SDS011;57190;47.918;8.112;2024-01-30T00:13:20;1.10;;;1.00;;
69906;SDS011;57190;47.918;8.112;2024-01-30T00:15:46;1.27;;;1.10;;
69906;SDS011;57190;47.918;8.112;2024-01-30T00:18:11;1.00;;;1.00;;
69906;SDS011;57190;47.918;8.112;2024-01-30T00:20:37;1.30;;;1.20;;
69906;SDS011;57190;47.918;8.112;2024-01-30T00:23:03;0.97;;;0.90;;
69906;SDS011;57190;47.918;8.112;2024-01-30T00:25:31;1.47;;;1.10;;
69906;SDS011;57190;47.918;8.112;2024-01-30T00:27:58;0.73;;;0.73;;
69906;SDS011;57190;47.918;8.112;2024-01-30T00:30:23;1.47;;;1.37;;
69906;SDS011;57190;47.918;8.112;2024-01-30T00:32:49;1.30;;;1.07;;
69906;SDS011;57190;47.918;8.112;2024-01-30T00:35:15;1.07;;;1.07;;
69906;SDS011;57190;47.918;8.112;2024-01-30T00:37:40;1.03;;;0.93;;
69906;SDS011;57190;47.918;8.112;2024-01-30T00:40:06;1.20;;;1.10;;
69906;SDS011;57190;47.918;8.112;2024-01-30T00:42:32;0.83;;;0.83;;
69906;SDS011;57190;47.918;8.112;2024-01-30T00:44:58;0.90;;;0.73;;
69906;SDS011;57190;47.918;8.112;2024-01-30T00:47:23;1.10;;;1.00;;
69906;SDS011;57190;47.918;8.112;2024-01-30T00:49:49;1.20;;;1.03;;
69906;SDS011;57190;47.918;8.112;2024-01-30T00:52:14;1.30;;;1.20;;
69906;SDS011;57190;47.918;8.112;2024-01-30T00:54:41;0.90;;;0.90;;
69906;SDS011;57190;47.918;8.112;2024-01-30T00:57:06;1.00;;;1.00;;
69906;SDS011;57190;47.918;8.112;2024-01-30T00:59:32;0.97;;;0.83;;
69906;SDS011;57190;47.918;8.112;2024-01-30T01:01:58;1.00;;;1.00;;
69906;SDS011;57190;47.918;8.112;2024-01-30T01:04:23;1.67;;;1.10;;
69906;SDS011;57190;47.918;8.112;2024-01-30T01:06:48;1.13;;;1.07;;
69906;SDS011;57190;47.918;8.112;2024-01-30T01:09:14;1.27;;;1.20;;
69906;SDS011;57190;47.918;8.112;2024-01-30T01:11:40;1.00;;;1.00;;
69906;SDS011;57190;47.918;8.112;2024-01-30T01:14:05;1.70;;;1.07;;
69906;SDS011;57190;47.918;8.112;2024-01-30T01:16:33;1.10;;;1.00;;
69906;SDS011;57190;47.918;8.112;2024-01-30T01:18:59;1.30;;;1.20;;
69906;SDS011;57190;47.918;8.112;2024-01-30T01:21:25;1.83;;;1.20;;
69906;SDS011;57190;47.918;8.112;2024-01-30T01:23:51;1.07;;;1.00;;
69906;SDS011;57190;47.918;8.112;2024-01-30T01:26:16;1.10;;;1.00;;
69906;SDS011;57190;47.918;8.112;2024-01-30T01:28:41;1.13;;;1.10;;
69906;SDS011;57190;47.918;8.112;2024-01-30T01:31:07;1.40;;;1.30;;
69906;SDS011;57190;47.918;8.112;2024-01-30T01:33:33;1.10;;;1.00;;
69906;SDS011;57190;47.918;8.112;2024-01-30T01:35:59;1.33;;;1.23;;
69906;SDS011;57190;47.918;8.112;2024-01-30T01:38:25;1.33;;;1.13;;
69906;SDS011;57190;47.918;8.112;2024-01-30T01:40:50;1.20;;;1.10;;
69906;SDS011;57190;47.918;8.112;2024-01-30T01:43:16;1.30;;;1.20;;
69906;SDS011;57190;47.918;8.112;2024-01-30T01:45:42;1.27;;;1.17;;
69906;SDS011;57190;47.918;8.112;2024-01-30T01:48:07;1.20;;;1.10;;
69906;SDS011;57190;47.918;8.112;2024-01-30T01:50:34;1.20;;;1.10;;
69906;SDS011;57190;47.918;8.112;2024-01-30T01:53:01;1.03;;;0.90;;
69906;SDS011;57190;47.918;8.112;2024-01-30T01:55:28;1.10;;;1.10;;
69906;SDS011;57190;47.918;8.112;2024-01-30T01:57:56;1.10;;;1.00;;
69906;SDS011;57190;47.918;8.112;2024-01-30T02:00:22;1.27;;;1.17;;
69906;SDS011;57190;47.918;8.112;2024-01-30T02:02:48;1.80;;;1.33;;
69906;SDS011;57190;47.918;8.112;2024-01-30T02:05:15;1.03;;;1.00;;
69906;SDS011;57190;47.918;8.112;2024-01-30T02:07:42;1.60;;;1.50;;
69906;SDS011;57190;47.918;8.112;2024-01-30T02:10:09;1.53;;;1.33;;
69906;SDS011;57190;47.918;8.112;2024-01-30T02:12:38;1.30;;;1.20;;
69906;SDS011;57190;47.918;8.112;2024-01-30T02:15:03;1.43;;;1.13;;
69906;SDS011;57190;47.918;8.112;2024-01-30T02:17:30;1.23;;;1.13;;
69906;SDS011;57190;47.918;8.112;2024-01-30T02:19:56;1.30;;;1.20;;
69906;SDS011;57190;47.918;8.112;2024-01-30T02:22:22;1.27;;;1.17;;
69906;SDS011;57190;47.918;8.112;2024-01-30T02:24:49;1.90;;;1.70;;
69906;SDS011;57190;47.918;8.112;2024-01-30T02:27:15;1.40;;;1.30;;
69906;SDS011;57190;47.918;8.112;2024-01-30T02:29:40;1.30;;;1.20;;
69906;SDS011;57190;47.918;8.112;2024-01-30T02:32:06;3.40;;;1.00;;
69906;SDS011;57190;47.918;8.112;2024-01-30T02:34:32;1.40;;;1.20;;
69906;SDS011;57190;47.918;8.112;2024-01-30T02:36:58;1.10;;;1.00;;
69906;SDS011;57190;47.918;8.112;2024-01-30T02:39:24;1.47;;;1.37;;
69906;SDS011;57190;47.918;8.112;2024-01-30T02:41:49;2.07;;;1.27;;
69906;SDS011;57190;47.918;8.112;2024-01-30T02:44:15;1.30;;;1.20;;
69906;SDS011;57190;47.918;8.112;2024-01-30T02:46:40;1.50;;;1.40;;
69906;SDS011;57190;47.918;8.112;2024-01-30T02:49:06;1.20;;;1.10;;
69906;SDS011;57190;47.918;8.112;2024-01-30T02:51:31;1.40;;;1.30;;
69906;SDS011;57190;47.918;8.112;2024-01-30T02:54:00;1.40;;;1.23;;
69906;SDS011;57190;47.918;8.112;2024-01-30T02:56:25;1.47;;;1.20;;
69906;SDS011;57190;47.918;8.112;2024-01-30T02:58:51;1.50;;;1.40;;
69906;SDS011;57190;47.918;8.112;2024-01-30T03:01:16;1.20;;;1.10;;
69906;SDS011;57190;47.918;8.112;2024-01-30T03:03:42;1.37;;;1.27;;
69906;SDS011;57190;47.918;8.112;2024-01-30T03:06:08;2.83;;;1.20;;
69906;SDS011;57190;47.918;8.112;2024-01-30T03:08:34;1.27;;;1.17;;
69906;SDS011;57190;47.918;8.112;2024-01-30T03:11:00;1.50;;;1.40;;
69906;SDS011;57190;47.918;8.112;2024-01-30T03:13:25;1.43;;;1.27;;
69906;SDS011;57190;47.918;8.112;2024-01-30T03:15:51;1.20;;;1.10;;
69906;SDS011;57190;47.918;8.112;2024-01-30T03:18:17;1.10;;;1.10;;
69906;SDS011;57190;47.918;8.112;2024-01-30T03:20:43;1.10;;;1.10;;
69906;SDS011;57190;47.918;8.112;2024-01-30T03:23:08;1.10;;;1.00;;
69906;SDS011;57190;47.918;8.112;2024-01-30T03:25:34;1.00;;;1.00;;
69906;SDS011;57190;47.918;8.112;2024-01-30T03:27:59;1.20;;;1.10;;
69906;SDS011;57190;47.918;8.112;2024-01-30T03:30:24;1.43;;;1.33;;
69906;SDS011;57190;47.918;8.112;2024-01-30T03:32:50;1.47;;;1.30;;
69906;SDS011;57190;47.918;8.112;2024-01-30T03:35:15;1.10;;;1.00;;
69906;SDS011;57190;47.918;8.112;2024-01-30T03:37:41;1.27;;;1.17;;
69906;SDS011;57190;47.918;8.112;2024-01-30T03:40:06;1.30;;;1.20;;
69906;SDS011;57190;47.918;8.112;2024-01-30T03:42:32;1.20;;;1.10;;
69906;SDS011;57190;47.918;8.112;2024-01-30T03:44:58;1.97;;;1.20;;
69906;SDS011;57190;47.918;8.112;2024-01-30T03:47:23;1.17;;;1.00;;
69906;SDS011;57190;47.918;8.112;2024-01-30T03:49:49;1.10;;;1.00;;
69906;SDS011;57190;47.918;8.112;2024-01-30T03:52:14;1.00;;;1.00;;
69906;SDS011;57190;47.918;8.112;2024-01-30T03:54:42;1.33;;;1.23;;
69906;SDS011;57190;47.918;8.112;2024-01-30T03:57:07;1.30;;;1.20;;
69906;SDS011;57190;47.918;8.112;2024-01-30T03:59:33;1.33;;;1.23;;
69906;SDS011;57190;47.918;8.112;2024-01-30T04:01:59;1.10;;;1.00;;
69906;SDS011;57190;47.918;8.112;2024-01-30T04:04:25;1.30;;;1.20;;
69906;SDS011;57190;47.918;8.112;2024-01-30T04:06:50;1.10;;;1.10;;
69906;SDS011;57190;47.918;8.112;2024-01-30T04:09:15;1.70;;;1.10;;
69906;SDS011;57190;47.918;8.112;2024-01-30T04:11:41;1.20;;;1.10;;
69906;SDS011;57190;47.918;8.112;2024-01-30T04:14:07;1.23;;;1.13;;
69906;SDS011;57190;47.918;8.112;2024-01-30T04:16:33;1.20;;;1.00;;
69906;SDS011;57190;47.918;8.112;2024-01-30T04:18:58;1.50;;;1.40;;
69906;SDS011;57190;47.918;8.112;2024-01-30T04:21:24;1.50;;;1.27;;
69906;SDS011;57190;47.918;8.112;2024-01-30T04:23:50;0.90;;;0.80;;
69906;SDS011;57190;47.918;8.112;2024-01-30T04:26:17;1.27;;;1.17;;
69906;SDS011;57190;47.918;8.112;2024-01-30T04:28:43;1.40;;;1.30;;
69906;SDS011;57190;47.918;8.112;2024-01-30T04:31:09;0.90;;;0.90;;
69906;SDS011;57190;47.918;8.112;2024-01-30T04:33:35;1.30;;;1.20;;
69906;SDS011;57190;47.918;8.112;2024-01-30T04:36:01;1.47;;;1.07;;
69906;SDS011;57190;47.918;8.112;2024-01-30T04:38:26;1.13;;;1.03;;
69906;SDS011;57190;47.918;8.112;2024-01-30T04:40:52;1.53;;;0.83;;
69906;SDS011;57190;47.918;8.112;2024-01-30T04:43:17;1.00;;;1.00;;
69906;SDS011;57190;47.918;8.112;2024-01-30T04:45:44;2.27;;;1.13;;
69906;SDS011;57190;47.918;8.112;2024-01-30T04:48:09;0.90;;;0.90;;
69906;SDS011;57190;47.918;8.112;2024-01-30T04:50:35;1.27;;;1.10;;
69906;SDS011;57190;47.918;8.112;2024-01-30T04:53:01;1.20;;;1.10;;
69906;SDS011;57190;47.918;8.112;2024-01-30T04:55:26;1.10;;;1.10;;
69906;SDS011;57190;47.918;8.112;2024-01-30T04:57:52;1.10;;;1.00;;
69906;SDS011;57190;47.918;8.112;2024-01-30T05:00:17;1.33;;;1.23;;
69906;SDS011;57190;47.918;8.112;2024-01-30T05:02:43;1.33;;;1.23;;
69906;SDS011;57190;47.918;8.112;2024-01-30T05:05:08;1.20;;;1.10;;
69906;SDS011;57190;47.918;8.112;2024-01-30T05:07:33;1.33;;;1.00;;
69906;SDS011;57190;47.918;8.112;2024-01-30T05:09:59;0.93;;;0.90;;
69906;SDS011;57190;47.918;8.112;2024-01-30T05:12:25;1.40;;;1.30;;
69906;SDS011;57190;47.918;8.112;2024-01-30T05:14:50;1.50;;;1.30;;
69906;SDS011;57190;47.918;8.112;2024-01-30T05:17:16;1.17;;;1.07;;
69906;SDS011;57190;47.918;8.112;2024-01-30T05:19:42;1.37;;;1.27;;
69906;SDS011;57190;47.918;8.112;2024-01-30T05:22:08;1.67;;;1.30;;
69906;SDS011;57190;47.918;8.112;2024-01-30T05:24:34;1.10;;;1.00;;
69906;SDS011;57190;47.918;8.112;2024-01-30T05:26:59;1.17;;;1.00;;
69906;SDS011;57190;47.918;8.112;2024-01-30T05:29:25;2.00;;;1.37;;
69906;SDS011;57190;47.918;8.112;2024-01-30T05:31:50;1.40;;;1.30;;
69906;SDS011;57190;47.918;8.112;2024-01-30T05:34:16;1.53;;;1.43;;
69906;SDS011;57190;47.918;8.112;2024-01-30T05:36:42;1.37;;;1.27;;
69906;SDS011;57190;47.918;8.112;2024-01-30T05:39:08;1.50;;;1.40;;
69906;SDS011;57190;47.918;8.112;2024-01-30T05:41:33;1.47;;;1.30;;
69906;SDS011;57190;47.918;8.112;2024-01-30T05:43:59;1.50;;;1.40;;
69906;SDS011;57190;47.918;8.112;2024-01-30T05:46:24;1.30;;;1.20;;
69906;SDS011;57190;47.918;8.112;2024-01-30T05:48:50;1.40;;;1.30;;
69906;SDS011;57190;47.918;8.112;2024-01-30T05:51:15;1.50;;;1.40;;
69906;SDS011;57190;47.918;8.112;2024-01-30T05:53:41;1.53;;;1.30;;
69906;SDS011;57190;47.918;8.112;2024-01-30T05:56:06;2.63;;;1.53;;
69906;SDS011;57190;47.918;8.112;2024-01-30T05:58:32;1.80;;;1.40;;
69906;SDS011;57190;47.918;8.112;2024-01-30T06:00:57;3.00;;;1.50;;
69906;SDS011;57190;47.918;8.112;2024-01-30T06:03:23;1.50;;;1.40;;
69906;SDS011;57190;47.918;8.112;2024-01-30T06:05:48;1.40;;;1.30;;
69906;SDS011;57190;47.918;8.112;2024-01-30T06:08:14;1.87;;;1.50;;
69906;SDS011;57190;47.918;8.112;2024-01-30T06:10:39;1.50;;;1.40;;
69906;SDS011;57190;47.918;8.112;2024-01-30T06:13:05;1.37;;;1.27;;
69906;SDS011;57190;47.918;8.112;2024-01-30T06:15:31;1.50;;;1.40;;
69906;SDS011;57190;47.918;8.112;2024-01-30T06:17:58;1.63;;;1.30;;
69906;SDS011;57190;47.918;8.112;2024-01-30T06:20:24;1.50;;;1.40;;
69906;SDS011;57190;47.918;8.112;2024-01-30T06:22:49;1.73;;;1.60;;
69906;SDS011;57190;47.918;8.112;2024-01-30T06:25:15;1.73;;;1.63;;
69906;SDS011;57190;47.918;8.112;2024-01-30T06:27:41;1.30;;;1.20;;
69906;SDS011;57190;47.918;8.112;2024-01-30T06:30:07;2.13;;;1.53;;
69906;SDS011;57190;47.918;8.112;2024-01-30T06:32:36;1.50;;;1.40;;
69906;SDS011;57190;47.918;8.112;2024-01-30T06:35:02;2.47;;;1.70;;
69906;SDS011;57190;47.918;8.112;2024-01-30T06:37:28;2.23;;;2.03;;
69906;SDS011;57190;47.918;8.112;2024-01-30T06:39:53;1.40;;;1.30;;
69906;SDS011;57190;47.918;8.112;2024-01-30T06:42:19;1.87;;;1.37;;
69906;SDS011;57190;47.918;8.112;2024-01-30T06:44:45;2.40;;;1.70;;
69906;SDS011;57190;47.918;8.112;2024-01-30T06:47:10;1.50;;;1.40;;
69906;SDS011;57190;47.918;8.112;2024-01-30T06:49:36;2.13;;;1.60;;
69906;SDS011;57190;47.918;8.112;2024-01-30T06:52:06;1.63;;;1.50;;
69906;SDS011;57190;47.918;8.112;2024-01-30T06:54:31;2.47;;;1.60;;
69906;SDS011;57190;47.918;8.112;2024-01-30T06:56:57;1.80;;;1.70;;
69906;SDS011;57190;47.918;8.112;2024-01-30T06:59:23;1.40;;;1.30;;
69906;SDS011;57190;47.918;8.112;2024-01-30T07:01:49;1.80;;;1.70;;
69906;SDS011;57190;47.918;8.112;2024-01-30T07:04:14;2.20;;;1.87;;
69906;SDS011;57190;47.918;8.112;2024-01-30T07:06:41;3.40;;;1.80;;
69906;SDS011;57190;47.918;8.112;2024-01-30T07:09:06;1.60;;;1.50;;
69906;SDS011;57190;47.918;8.112;2024-01-30T07:11:32;2.57;;;1.70;;
69906;SDS011;57190;47.918;8.112;2024-01-30T07:13:57;2.23;;;1.63;;
69906;SDS011;57190;47.918;8.112;2024-01-30T07:16:23;1.50;;;1.40;;
69906;SDS011;57190;47.918;8.112;2024-01-30T07:18:48;1.77;;;1.67;;
69906;SDS011;57190;47.918;8.112;2024-01-30T07:21:14;2.23;;;1.50;;
69906;SDS011;57190;47.918;8.112;2024-01-30T07:23:40;1.60;;;1.50;;
69906;SDS011;57190;47.918;8.112;2024-01-30T07:26:07;1.93;;;1.67;;
69906;SDS011;57190;47.918;8.112;2024-01-30T07:28:34;1.90;;;1.80;;
69906;SDS011;57190;47.918;8.112;2024-01-30T07:31:00;1.80;;;1.70;;
69906;SDS011;57190;47.918;8.112;2024-01-30T07:33:26;1.67;;;1.57;;
69906;SDS011;57190;47.918;8.112;2024-01-30T07:35:53;1.83;;;1.70;;
69906;SDS011;57190;47.918;8.112;2024-01-30T07:38:18;1.70;;;1.60;;
69906;SDS011;57190;47.918;8.112;2024-01-30T07:40:44;1.70;;;1.60;;
69906;SDS011;57190;47.918;8.112;2024-01-30T07:43:10;1.93;;;1.67;;
69906;SDS011;57190;47.918;8.112;2024-01-30T07:45:36;2.07;;;1.97;;
69906;SDS011;57190;47.918;8.112;2024-01-30T07:48:03;2.00;;;1.80;;
69906;SDS011;57190;47.918;8.112;2024-01-30T07:50:31;1.83;;;1.60;;
69906;SDS011;57190;47.918;8.112;2024-01-30T07:52:56;1.80;;;1.70;;
69906;SDS011;57190;47.918;8.112;2024-01-30T07:55:22;2.40;;;2.20;;
69906;SDS011;57190;47.918;8.112;2024-01-30T07:57:53;3.88;;;2.60;;
69906;SDS011;57190;47.918;8.112;2024-01-30T08:00:20;8.07;;;5.80;;
69906;SDS011;57190;47.918;8.112;2024-01-30T08:02:46;11.77;;;6.93;;
69906;SDS011;57190;47.918;8.112;2024-01-30T08:05:12;8.27;;;5.53;;
69906;SDS011;57190;47.918;8.112;2024-01-30T08:07:39;3.58;;;3.28;;
69906;SDS011;57190;47.918;8.112;2024-01-30T08:10:05;2.97;;;2.72;;
69906;SDS011;57190;47.918;8.112;2024-01-30T08:12:31;2.50;;;2.30;;
69906;SDS011;57190;47.918;8.112;2024-01-30T08:14:56;16.15;;;10.20;;
69906;SDS011;57190;47.918;8.112;2024-01-30T08:17:22;11.93;;;8.65;;
69906;SDS011;57190;47.918;8.112;2024-01-30T08:19:47;6.60;;;4.93;;
69906;SDS011;57190;47.918;8.112;2024-01-30T08:22:12;20.63;;;12.93;;
69906;SDS011;57190;47.918;8.112;2024-01-30T08:24:38;13.23;;;8.65;;
69906;SDS011;57190;47.918;8.112;2024-01-30T08:27:05;14.23;;;9.40;;
69906;SDS011;57190;47.918;8.112;2024-01-30T08:29:31;18.00;;;11.05;;
69906;SDS011;57190;47.918;8.112;2024-01-30T08:31:57;9.20;;;7.63;;
69906;SDS011;57190;47.918;8.112;2024-01-30T08:34:24;10.65;;;8.75;;
69906;SDS011;57190;47.918;8.112;2024-01-30T08:36:49;16.40;;;13.00;;
69906;SDS011;57190;47.918;8.112;2024-01-30T08:39:15;11.80;;;8.25;;
69906;SDS011;57190;47.918;8.112;2024-01-30T08:41:40;21.63;;;17.17;;
69906;SDS011;57190;47.918;8.112;2024-01-30T08:44:06;26.60;;;23.17;;
69906;SDS011;57190;47.918;8.112;2024-01-30T08:46:32;15.88;;;13.95;;
69906;SDS011;57190;47.918;8.112;2024-01-30T08:48:57;17.55;;;15.02;;
69906;SDS011;57190;47.918;8.112;2024-01-30T08:51:23;19.60;;;16.60;;
69906;SDS011;57190;47.918;8.112;2024-01-30T08:53:49;22.45;;;17.10;;
69906;SDS011;57190;47.918;8.112;2024-01-30T08:56:14;17.73;;;15.07;;
69906;SDS011;57190;47.918;8.112;2024-01-30T08:58:41;16.42;;;12.75;;
69906;SDS011;57190;47.918;8.112;2024-01-30T09:01:07;14.63;;;11.75;;
69906;SDS011;57190;47.918;8.112;2024-01-30T09:03:32;10.10;;;8.60;;
69906;SDS011;57190;47.918;8.112;2024-01-30T09:05:58;10.25;;;8.80;;
69906;SDS011;57190;47.918;8.112;2024-01-30T09:08:23;11.80;;;10.32;;
69906;SDS011;57190;47.918;8.112;2024-01-30T09:10:49;13.27;;;10.85;;
69906;SDS011;57190;47.918;8.112;2024-01-30T09:13:15;12.35;;;10.50;;
69906;SDS011;57190;47.918;8.112;2024-01-30T09:15:41;13.00;;;11.35;;
69906;SDS011;57190;47.918;8.112;2024-01-30T09:18:07;23.05;;;15.75;;
69906;SDS011;57190;47.918;8.112;2024-01-30T09:20:32;16.45;;;13.43;;
69906;SDS011;57190;47.918;8.112;2024-01-30T09:22:58;20.08;;;15.07;;
69906;SDS011;57190;47.918;8.112;2024-01-30T09:25:23;18.08;;;13.55;;
69906;SDS011;57190;47.918;8.112;2024-01-30T09:27:49;16.55;;;11.70;;
69906;SDS011;57190;47.918;8.112;2024-01-30T09:30:15;14.13;;;11.25;;
69906;SDS011;57190;47.918;8.112;2024-01-30T09:32:43;15.30;;;12.10;;
69906;SDS011;57190;47.918;8.112;2024-01-30T09:35:08;13.52;;;9.68;;
69906;SDS011;57190;47.918;8.112;2024-01-30T09:37:34;8.15;;;6.60;;
69906;SDS011;57190;47.918;8.112;2024-01-30T09:39:59;9.70;;;6.88;;
69906;SDS011;57190;47.918;8.112;2024-01-30T09:42:26;5.47;;;4.95;;
69906;SDS011;57190;47.918;8.112;2024-01-30T09:45:02;3.38;;;2.83;;
69906;SDS011;57190;47.918;8.112;2024-01-30T09:47:32;5.40;;;4.90;;
69906;SDS011;57190;47.918;8.112;2024-01-30T09:50:09;2.95;;;2.25;;
69906;SDS011;57190;47.918;8.112;2024-01-30T09:52:36;3.13;;;2.10;;
69906;SDS011;57190;47.918;8.112;2024-01-30T09:55:02;2.63;;;2.20;;
69906;SDS011;57190;47.918;8.112;2024-01-30T09:57:28;2.40;;;1.90;;
69906;SDS011;57190;47.918;8.112;2024-01-30T09:59:54;2.00;;;1.80;;
69906;SDS011;57190;47.918;8.112;2024-01-30T10:02:20;1.35;;;1.25;;
69906;SDS011;57190;47.918;8.112;2024-01-30T10:04:49;1.55;;;1.20;;
69906;SDS011;57190;47.918;8.112;2024-01-30T10:07:16;1.45;;;1.35;;
69906;SDS011;57190;47.918;8.112;2024-01-30T10:09:45;1.50;;;1.35;;
69906;SDS011;57190;47.918;8.112;2024-01-30T10:12:11;1.42;;;1.33;;
69906;SDS011;57190;47.918;8.112;2024-01-30T10:14:37;1.60;;;1.50;;
69906;SDS011;57190;47.918;8.112;2024-01-30T10:17:03;2.05;;;1.30;;
69906;SDS011;57190;47.918;8.112;2024-01-30T10:19:30;2.75;;;1.20;;
69906;SDS011;57190;47.918;8.112;2024-01-30T10:21:56;1.73;;;1.63;;
69906;SDS011;57190;47.918;8.112;2024-01-30T10:24:25;1.45;;;1.27;;
69906;SDS011;57190;47.918;8.112;2024-01-30T10:26:51;1.33;;;1.20;;
69906;SDS011;57190;47.918;8.112;2024-01-30T10:29:17;1.55;;;1.45;;
69906;SDS011;57190;47.918;8.112;2024-01-30T10:31:42;1.90;;;1.17;;
69906;SDS011;57190;47.918;8.112;2024-01-30T10:34:08;1.10;;;1.08;;
69906;SDS011;57190;47.918;8.112;2024-01-30T10:36:33;1.30;;;1.20;;
69906;SDS011;57190;47.918;8.112;2024-01-30T10:39:08;1.23;;;1.10;;
69906;SDS011;57190;47.918;8.112;2024-01-30T10:41:35;2.10;;;1.27;;
69906;SDS011;57190;47.918;8.112;2024-01-30T10:44:09;1.63;;;1.33;;
69906;SDS011;57190;47.918;8.112;2024-01-30T10:46:36;1.27;;;1.25;;
69906;SDS011;57190;47.918;8.112;2024-01-30T10:49:03;2.75;;;1.45;;
69906;SDS011;57190;47.918;8.112;2024-01-30T10:51:30;3.42;;;2.65;;
69906;SDS011;57190;47.918;8.112;2024-01-30T10:53:57;2.80;;;1.90;;
69906;SDS011;57190;47.918;8.112;2024-01-30T10:56:23;1.45;;;1.35;;
69906;SDS011;57190;47.918;8.112;2024-01-30T10:58:53;2.25;;;1.40;;
69906;SDS011;57190;47.918;8.112;2024-01-30T11:01:22;1.75;;;1.23;;
69906;SDS011;57190;47.918;8.112;2024-01-30T11:03:50;1.73;;;1.63;;
69906;SDS011;57190;47.918;8.112;2024-01-30T11:06:16;1.55;;;1.38;;
69906;SDS011;57190;47.918;8.112;2024-01-30T11:08:43;1.70;;;1.40;;
69906;SDS011;57190;47.918;8.112;2024-01-30T11:11:10;1.58;;;1.30;;
69906;SDS011;57190;47.918;8.112;2024-01-30T11:13:36;1.40;;;1.30;;
69906;SDS011;57190;47.918;8.112;2024-01-30T11:16:02;1.50;;;1.25;;
69906;SDS011;57190;47.918;8.112;2024-01-30T11:18:31;1.40;;;1.30;;
69906;SDS011;57190;47.918;8.112;2024-01-30T11:20:58;1.40;;;1.30;;
69906;SDS011;57190;47.918;8.112;2024-01-30T11:23:30;1.40;;;1.30;;
69906;SDS011;57190;47.918;8.112;2024-01-30T11:25:58;1.17;;;1.10;;
69906;SDS011;57190;47.918;8.112;2024-01-30T11:28:23;0.93;;;0.93;;
69906;SDS011;57190;47.918;8.112;2024-01-30T11:30:49;1.33;;;1.27;;
69906;SDS011;57190;47.918;8.112;2024-01-30T11:33:30;0.90;;;0.90;;
69906;SDS011;57190;47.918;8.112;2024-01-30T11:35:59;1.55;;;1.45;;
69906;SDS011;57190;47.918;8.112;2024-01-30T11:38:26;1.70;;;1.33;;
69906;SDS011;57190;47.918;8.112;2024-01-30T11:40:55;1.50;;;1.40;;
69906;SDS011;57190;47.918;8.112;2024-01-30T11:43:24;1.60;;;1.50;;
69906;SDS011;57190;47.918;8.112;2024-01-30T11:45:50;1.63;;;1.30;;
69906;SDS011;57190;47.918;8.112;2024-01-30T11:48:16;1.60;;;1.33;;
69906;SDS011;57190;47.918;8.112;2024-01-30T11:50:42;1.38;;;1.27;;
69906;SDS011;57190;47.918;8.112;2024-01-30T11:53:09;1.50;;;1.40;;
69906;SDS011;57190;47.918;8.112;2024-01-30T11:55:35;1.63;;;1.52;;
69906;SDS011;57190;47.918;8.112;2024-01-30T11:58:02;1.40;;;1.30;;
69906;SDS011;57190;47.918;8.112;2024-01-30T12:00:29;1.38;;;1.27;;
69906;SDS011;57190;47.918;8.112;2024-01-30T12:02:56;1.40;;;1.27;;
69906;SDS011;57190;47.918;8.112;2024-01-30T12:05:25;1.23;;;1.10;;
69906;SDS011;57190;47.918;8.112;2024-01-30T12:07:50;1.30;;;1.20;;
69906;SDS011;57190;47.918;8.112;2024-01-30T12:10:16;1.67;;;1.58;;
69906;SDS011;57190;47.918;8.112;2024-01-30T12:12:46;1.70;;;1.60;;
69906;SDS011;57190;47.918;8.112;2024-01-30T12:15:13;2.03;;;1.50;;
69906;SDS011;57190;47.918;8.112;2024-01-30T12:17:38;1.40;;;1.30;;
69906;SDS011;57190;47.918;8.112;2024-01-30T12:20:05;1.40;;;1.20;;
69906;SDS011;57190;47.918;8.112;2024-01-30T12:25:10;1.30;;;1.20;;
69906;SDS011;57190;47.918;8.112;2024-01-30T12:27:37;1.70;;;1.60;;
69906;SDS011;57190;47.918;8.112;2024-01-30T12:30:12;1.85;;;1.42;;
69906;SDS011;57190;47.918;8.112;2024-01-30T12:32:42;1.67;;;1.58;;
69906;SDS011;57190;47.918;8.112;2024-01-30T12:35:12;1.77;;;1.50;;
69906;SDS011;57190;47.918;8.112;2024-01-30T12:37:42;1.58;;;1.45;;
69906;SDS011;57190;47.918;8.112;2024-01-30T12:40:08;1.70;;;1.60;;
69906;SDS011;57190;47.918;8.112;2024-01-30T12:42:35;1.70;;;1.60;;
69906;SDS011;57190;47.918;8.112;2024-01-30T12:45:02;1.45;;;1.35;;
69906;SDS011;57190;47.918;8.112;2024-01-30T12:47:29;1.20;;;1.10;;
69906;SDS011;57190;47.918;8.112;2024-01-30T12:49:55;1.75;;;1.65;;
69906;SDS011;57190;47.918;8.112;2024-01-30T12:52:20;3.00;;;1.60;;
69906;SDS011;57190;47.918;8.112;2024-01-30T12:54:47;1.55;;;1.45;;
69906;SDS011;57190;47.918;8.112;2024-01-30T12:57:13;1.88;;;1.48;;
69906;SDS011;57190;47.918;8.112;2024-01-30T12:59:39;1.50;;;1.40;;
69906;SDS011;57190;47.918;8.112;2024-01-30T13:02:04;2.30;;;1.35;;
69906;SDS011;57190;47.918;8.112;2024-01-30T13:04:30;1.38;;;1.20;;
69906;SDS011;57190;47.918;8.112;2024-01-30T13:06:56;1.83;;;1.48;;
69906;SDS011;57190;47.918;8.112;2024-01-30T13:09:22;1.60;;;1.50;;
69906;SDS011;57190;47.918;8.112;2024-01-30T13:11:48;1.63;;;1.52;;
69906;SDS011;57190;47.918;8.112;2024-01-30T13:14:15;2.55;;;1.58;;
69906;SDS011;57190;47.918;8.112;2024-01-30T13:16:40;3.15;;;1.92;;
69906;SDS011;57190;47.918;8.112;2024-01-30T13:19:05;1.77;;;1.67;;
69906;SDS011;57190;47.918;8.112;2024-01-30T13:21:31;1.83;;;1.73;;
69906;SDS011;57190;47.918;8.112;2024-01-30T13:23:56;2.05;;;1.73;;
69906;SDS011;57190;47.918;8.112;2024-01-30T13:26:22;1.65;;;1.55;;
69906;SDS011;57190;47.918;8.112;2024-01-30T13:28:47;3.78;;;3.47;;
69906;SDS011;57190;47.918;8.112;2024-01-30T13:31:16;3.25;;;2.95;;
69906;SDS011;57190;47.918;8.112;2024-01-30T13:33:42;2.75;;;2.55;;
69906;SDS011;57190;47.918;8.112;2024-01-30T13:36:08;1.98;;;1.85;;
69906;SDS011;57190;47.918;8.112;2024-01-30T13:38:35;2.70;;;2.45;;
69906;SDS011;57190;47.918;8.112;2024-01-30T13:41:01;2.42;;;2.10;;
69906;SDS011;57190;47.918;8.112;2024-01-30T13:43:27;2.20;;;2.00;;
69906;SDS011;57190;47.918;8.112;2024-01-30T13:45:53;2.25;;;2.05;;
69906;SDS011;57190;47.918;8.112;2024-01-30T13:48:19;2.28;;;2.17;;
69906;SDS011;57190;47.918;8.112;2024-01-30T13:50:44;2.20;;;1.83;;
69906;SDS011;57190;47.918;8.112;2024-01-30T13:53:11;1.67;;;1.58;;
69906;SDS011;57190;47.918;8.112;2024-01-30T13:55:36;2.47;;;2.28;;
69906;SDS011;57190;47.918;8.112;2024-01-30T13:58:02;1.90;;;1.80;;
69906;SDS011;57190;47.918;8.112;2024-01-30T14:00:27;2.50;;;2.30;;
69906;SDS011;57190;47.918;8.112;2024-01-30T14:02:53;2.30;;;2.10;;
69906;SDS011;57190;47.918;8.112;2024-01-30T14:05:23;2.75;;;2.50;;
69906;SDS011;57190;47.918;8.112;2024-01-30T14:07:48;2.72;;;2.00;;
69906;SDS011;57190;47.918;8.112;2024-01-30T14:10:15;2.78;;;2.30;;
69906;SDS011;57190;47.918;8.112;2024-01-30T14:12:41;2.88;;;2.08;;
69906;SDS011;57190;47.918;8.112;2024-01-30T14:15:08;2.35;;;2.15;;
69906;SDS011;57190;47.918;8.112;2024-01-30T14:17:35;3.25;;;2.20;;
69906;SDS011;57190;47.918;8.112;2024-01-30T14:20:01;2.10;;;1.90;;
69906;SDS011;57190;47.918;8.112;2024-01-30T14:22:28;4.00;;;3.13;;
69906;SDS011;57190;47.918;8.112;2024-01-30T14:24:53;3.30;;;2.72;;
69906;SDS011;57190;47.918;8.112;2024-01-30T14:27:19;3.60;;;2.97;;
69906;SDS011;57190;47.918;8.112;2024-01-30T14:29:44;3.17;;;2.72;;
69906;SDS011;57190;47.918;8.112;2024-01-30T14:32:10;3.65;;;3.17;;
69906;SDS011;57190;47.918;8.112;2024-01-30T14:34:36;3.20;;;2.65;;
69906;SDS011;57190;47.918;8.112;2024-01-30T14:37:01;4.07;;;3.38;;
69906;SDS011;57190;47.918;8.112;2024-01-30T14:39:27;2.60;;;2.28;;
69906;SDS011;57190;47.918;8.112;2024-01-30T14:41:53;2.67;;;2.40;;